Time;durP1;ratioP1;P1;durP2;ratioP2;P2;SDS_P1;SDS_P2;PMS_P1;PMS_P2;Temp;Humidity;BMP_temperature;BMP_pressure;BME280_temperature;BME280_humidity;BME280_pressure;Samples;Min_cycle;Max_cycle;Signal;HPM_P1;HPM_P2
2024/01/30 00:02:22;;;;;;;5.40;3.60;;;;;;;20.66;27.39;103395.36;102682;1296;60056;-82
2024/01/30 00:04:48;;;;;;;4.90;3.60;;;;;;;20.64;27.50;103396.67;102896;1292;61319;-82
2024/01/30 00:07:13;;;;;;;6.60;3.80;;;;;;;20.62;27.52;103398.16;103148;1294;61207;-83
2024/01/30 00:09:39;;;;;;;6.00;3.80;;;;;;;20.59;27.42;103399.11;102997;1292;61271;-83
2024/01/30 00:12:06;;;;;;;5.20;3.70;;;;;;;20.58;27.52;103405.23;102793;1299;61289;-83
2024/01/30 00:14:31;;;;;;;5.70;4.00;;;;;;;20.55;27.53;103405.13;102863;1293;59607;-83
2024/01/30 00:16:57;;;;;;;5.70;4.10;;;;;;;20.53;27.58;103401.44;102944;1292;61392;-83
2024/01/30 00:19:23;;;;;;;5.70;3.60;;;;;;;20.52;27.64;103399.34;103422;1296;59449;-83
2024/01/30 00:21:48;;;;;;;5.40;3.70;;;;;;;20.49;27.55;103397.06;102738;1294;72479;-83
2024/01/30 00:24:14;;;;;;;4.70;3.30;;;;;;;20.48;27.61;103397.66;102779;1292;59391;-82
2024/01/30 00:26:40;;;;;;;4.90;3.50;;;;;;;20.46;27.54;103401.45;103015;1292;61472;-84
2024/01/30 00:29:05;;;;;;;6.50;3.60;;;;;;;20.45;27.48;103401.14;102872;1292;61416;-83
2024/01/30 00:31:31;;;;;;;5.90;3.80;;;;;;;20.42;27.63;103400.47;102631;1294;61411;-83
2024/01/30 00:33:57;;;;;;;5.80;3.50;;;;;;;20.41;27.56;103403.38;102855;1292;59453;-83
2024/01/30 00:36:22;;;;;;;6.90;3.50;;;;;;;20.40;27.63;103403.77;102623;1294;74296;-83
2024/01/30 00:38:48;;;;;;;4.80;3.50;;;;;;;20.38;27.50;103405.23;102836;1296;59437;-83
2024/01/30 00:41:14;;;;;;;5.90;4.00;;;;;;;20.37;27.61;103409.05;102828;1292;61394;-83
2024/01/30 00:43:40;;;;;;;5.80;3.70;;;;;;;20.36;27.68;103407.64;103090;1292;61496;-83
2024/01/30 00:46:05;;;;;;;5.60;4.20;;;;;;;20.34;27.79;103404.45;103263;1293;61360;-84
2024/01/30 00:48:31;;;;;;;5.20;3.60;;;;;;;20.34;27.65;103405.55;103008;1292;61383;-83
2024/01/30 00:50:56;;;;;;;6.00;3.60;;;;;;;20.33;27.74;103401.09;102882;1293;61422;-83
2024/01/30 00:53:22;;;;;;;6.70;3.50;;;;;;;20.32;27.80;103404.35;102945;1293;61498;-83
2024/01/30 00:55:48;;;;;;;5.30;3.50;;;;;;;20.31;27.65;103406.16;102955;1292;61164;-83
2024/01/30 00:58:14;;;;;;;4.90;3.50;;;;;;;20.31;27.66;103404.39;102535;1298;61471;-83
2024/01/30 01:00:40;;;;;;;6.80;3.80;;;;;;;20.31;27.61;103406.52;102925;1292;61397;-83
2024/01/30 01:03:05;;;;;;;6.10;3.40;;;;;;;20.32;27.74;103405.77;102743;1293;61472;-83
2024/01/30 01:05:31;;;;;;;5.60;3.50;;;;;;;20.34;27.64;103398.77;102650;1292;61279;-83
2024/01/30 01:07:57;;;;;;;6.60;3.80;;;;;;;20.35;27.62;103396.57;102789;1292;59488;-83
2024/01/30 01:10:22;;;;;;;6.00;3.70;;;;;;;20.37;27.51;103390.80;102736;1292;61284;-83
2024/01/30 01:12:48;;;;;;;5.10;3.60;;;;;;;20.39;27.53;103385.73;102652;1292;62407;-83
2024/01/30 01:15:14;;;;;;;5.80;3.70;;;;;;;20.41;27.51;103379.42;102641;1293;61299;-83
2024/01/30 01:17:40;;;;;;;4.60;3.30;;;;;;;20.43;27.49;103371.32;102518;1299;61443;-83
2024/01/30 01:20:07;;;;;;;5.00;3.50;;;;;;;20.45;27.44;103372.69;102891;1293;71551;-83
2024/01/30 01:22:34;;;;;;;4.80;3.50;;;;;;;20.46;27.43;103366.40;102773;1293;74776;-83
2024/01/30 01:25:00;;;;;;;4.70;3.50;;;;;;;20.48;27.55;103370.46;102802;1292;59567;-83
2024/01/30 01:27:26;;;;;;;5.60;3.40;;;;;;;20.50;27.43;103371.66;102918;1292;61492;-83
2024/01/30 01:29:52;;;;;;;6.40;3.60;;;;;;;20.52;27.33;103369.80;102675;1294;61403;-83
2024/01/30 01:32:18;;;;;;;5.50;3.70;;;;;;;20.54;27.34;103370.83;102797;1292;61403;-83
2024/01/30 01:34:44;;;;;;;5.40;3.00;;;;;;;20.55;27.36;103371.86;102843;1293;61390;-83
2024/01/30 01:37:11;;;;;;;5.30;3.20;;;;;;;20.57;27.30;103377.34;102881;1293;59894;-83
2024/01/30 01:39:36;;;;;;;4.60;3.30;;;;;;;20.59;27.31;103374.80;102824;1296;61388;-83
2024/01/30 01:42:02;;;;;;;6.00;3.40;;;;;;;20.59;27.16;103373.52;102770;1292;61678;-83
2024/01/30 01:44:28;;;;;;;6.70;3.80;;;;;;;20.61;27.28;103374.55;102909;1293;75296;-83
2024/01/30 01:46:54;;;;;;;5.00;3.60;;;;;;;20.63;27.22;103374.34;102996;1294;61411;-83
2024/01/30 01:49:20;;;;;;;4.60;3.20;;;;;;;20.64;27.16;103381.10;103088;1292;61444;-83
2024/01/30 01:51:45;;;;;;;4.80;3.10;;;;;;;20.65;27.30;103382.32;102674;1296;61419;-83
2024/01/30 01:54:11;;;;;;;5.30;3.40;;;;;;;20.66;27.22;103382.83;102698;1292;61363;-83
2024/01/30 01:56:38;;;;;;;6.00;3.30;;;;;;;20.67;27.30;103380.47;103088;1292;61735;-83
2024/01/30 01:59:08;;;;;;;4.60;3.20;;;;;;;20.68;27.10;103382.05;103073;1292;61287;-83
2024/01/30 02:01:40;;;;;;;4.70;3.10;;;;;;;20.69;27.16;103378.65;103195;1294;72290;-83
2024/01/30 02:04:07;;;;;;;4.10;2.90;;;;;;;20.70;27.23;103382.56;102873;1293;74448;-83
2024/01/30 02:06:34;;;;;;;4.60;3.20;;;;;;;20.72;27.20;103386.10;103120;1292;61309;-83
2024/01/30 02:08:59;;;;;;;5.90;3.40;;;;;;;20.72;27.29;103386.25;103178;1293;61601;-83
2024/01/30 02:11:25;;;;;;;4.80;3.10;;;;;;;20.73;27.31;103379.27;102894;1292;61387;-83
2024/01/30 02:13:51;;;;;;;7.00;3.60;;;;;;;20.74;27.10;103384.96;103176;1292;61393;-83
2024/01/30 02:16:19;;;;;;;4.80;2.90;;;;;;;20.74;27.08;103379.59;102796;1292;61397;-83
2024/01/30 02:18:47;;;;;;;4.30;2.80;;;;;;;20.74;27.18;103374.39;102773;1292;61482;-83
2024/01/30 02:21:17;;;;;;;4.30;2.80;;;;;;;20.75;27.07;103373.30;102607;1296;72478;-83
2024/01/30 02:23:49;;;;;;;4.50;3.00;;;;;;;20.76;27.06;103372.20;102994;1292;74489;-83
2024/01/30 02:26:15;;;;;;;5.40;3.00;;;;;;;20.76;27.03;103370.41;103090;1292;61279;-83
2024/01/30 02:28:41;;;;;;;4.70;2.90;;;;;;;20.77;27.11;103373.78;102922;1292;61495;-83
2024/01/30 02:31:06;;;;;;;4.80;3.30;;;;;;;20.77;27.10;103376.99;102801;1292;61531;-83
2024/01/30 02:33:32;;;;;;;4.50;3.10;;;;;;;20.78;27.04;103373.22;102701;1293;61424;-83
2024/01/30 02:35:58;;;;;;;5.00;2.90;;;;;;;20.78;27.07;103374.99;102838;1293;61303;-83
2024/01/30 02:38:24;;;;;;;5.90;3.20;;;;;;;20.78;27.10;103373.75;103224;1293;61367;-83
2024/01/30 02:40:50;;;;;;;4.10;2.70;;;;;;;20.79;26.98;103366.92;102626;1292;61415;-83
2024/01/30 02:43:15;;;;;;;4.20;2.90;;;;;;;20.80;27.09;103361.52;102791;1294;61440;-83
2024/01/30 02:45:41;;;;;;;5.00;2.90;;;;;;;20.80;26.88;103361.69;102989;1296;61287;-83
2024/01/30 02:48:07;;;;;;;4.30;2.80;;;;;;;20.81;26.94;103360.95;102836;1293;61385;-83
2024/01/30 02:50:32;;;;;;;4.30;2.70;;;;;;;20.81;26.95;103364.16;102579;1294;61410;-83
2024/01/30 02:52:58;;;;;;;4.70;2.50;;;;;;;20.82;26.98;103363.80;103079;1293;59370;-83
2024/01/30 02:55:24;;;;;;;5.50;3.10;;;;;;;20.83;27.10;103366.45;103300;1293;72544;-83
2024/01/30 02:57:49;;;;;;;4.70;2.80;;;;;;;20.82;26.98;103368.25;103156;1292;61460;-83
2024/01/30 03:00:15;;;;;;;4.70;2.70;;;;;;;20.83;26.96;103361.96;102753;1294;61325;-83
2024/01/30 03:02:41;;;;;;;4.80;2.60;;;;;;;20.84;26.92;103355.69;102815;1293;61447;-83
2024/01/30 03:05:07;;;;;;;3.80;2.70;;;;;;;20.84;26.95;103355.84;102838;1292;59328;-83
2024/01/30 03:07:33;;;;;;;4.50;2.90;;;;;;;20.85;26.89;103353.15;102667;1292;59970;-83
2024/01/30 03:09:59;;;;;;;4.60;2.90;;;;;;;20.85;26.81;103350.83;102714;1294;61390;-83
2024/01/30 03:12:24;;;;;;;4.80;2.70;;;;;;;20.84;26.85;103351.71;102732;1291;61300;-82
2024/01/30 03:14:50;;;;;;;4.60;3.00;;;;;;;20.85;26.82;103349.73;102817;1294;59443;-82
2024/01/30 03:17:16;;;;;;;4.10;2.60;;;;;;;20.85;26.88;103345.97;102929;1293;61395;-82
2024/01/30 03:19:41;;;;;;;4.60;2.90;;;;;;;20.85;26.75;103350.44;102724;1293;61419;-83
2024/01/30 03:22:07;;;;;;;4.70;2.90;;;;;;;20.86;26.83;103355.98;102795;1293;61445;-83
2024/01/30 03:24:33;;;;;;;4.10;3.00;;;;;;;20.86;26.93;103356.86;102848;1294;61476;-82
2024/01/30 03:26:58;;;;;;;5.30;2.50;;;;;;;20.86;26.81;103355.98;102717;1294;60318;-82
2024/01/30 03:29:24;;;;;;;4.40;2.60;;;;;;;20.86;26.96;103349.34;102628;1293;61396;-82
2024/01/30 03:31:49;;;;;;;4.70;2.80;;;;;;;20.86;26.85;103350.05;103122;1293;59270;-82
2024/01/30 03:34:15;;;;;;;4.10;2.90;;;;;;;20.86;26.81;103344.69;103060;1293;61393;-83
2024/01/30 03:36:41;;;;;;;3.90;2.60;;;;;;;20.87;26.76;103344.84;102699;1295;61326;-83
2024/01/30 03:39:06;;;;;;;4.90;2.70;;;;;;;20.87;26.74;103341.80;102673;1293;61402;-82
2024/01/30 03:41:32;;;;;;;4.40;2.90;;;;;;;20.88;26.88;103342.67;102614;1293;61491;-82
2024/01/30 03:43:58;;;;;;;4.30;2.70;;;;;;;20.86;26.71;103338.77;103055;1293;61406;-83
2024/01/30 03:46:24;;;;;;;3.90;2.60;;;;;;;20.87;26.87;103343.04;102878;1293;61270;-83
2024/01/30 03:48:50;;;;;;;4.30;3.00;;;;;;;20.88;26.79;103341.77;102640;1293;61462;-83
2024/01/30 03:51:16;;;;;;;3.90;2.60;;;;;;;20.88;26.79;103344.63;102666;1294;61409;-82
2024/01/30 03:53:42;;;;;;;4.60;2.90;;;;;;;20.88;26.78;103341.95;103004;1292;60143;-82
2024/01/30 03:56:08;;;;;;;4.10;2.70;;;;;;;20.88;26.68;103346.59;102855;1292;60258;-83
2024/01/30 03:58:34;;;;;;;4.30;2.70;;;;;;;20.88;26.74;103344.27;102945;1293;60055;-82
2024/01/30 04:00:59;;;;;;;4.70;3.00;;;;;;;20.88;26.79;103342.83;102681;1293;61319;-82
2024/01/30 04:03:25;;;;;;;4.20;2.70;;;;;;;20.87;26.75;103342.33;102716;1293;61387;-83
2024/01/30 04:05:54;;;;;;;4.10;2.40;;;;;;;20.88;26.93;103347.50;102516;1293;61337;-82
2024/01/30 04:08:20;;;;;;;4.00;2.50;;;;;;;20.88;26.77;103349.82;102738;1293;61278;-83
2024/01/30 04:10:46;;;;;;;4.40;2.60;;;;;;;20.88;26.62;103350.17;102889;1292;61290;-82
2024/01/30 04:13:11;;;;;;;4.30;2.70;;;;;;;20.89;26.84;103350.15;102871;1293;61420;-82
2024/01/30 04:15:37;;;;;;;5.00;2.60;;;;;;;20.88;26.71;103357.52;103022;1292;61385;-82
2024/01/30 04:18:03;;;;;;;4.10;2.70;;;;;;;20.90;26.84;103361.05;102770;1291;59388;-82
2024/01/30 04:20:29;;;;;;;4.40;2.90;;;;;;;20.89;26.88;103366.06;103118;1293;61502;-82
2024/01/30 04:22:55;;;;;;;4.10;2.50;;;;;;;20.90;26.84;103364.96;102946;1292;59399;-82
2024/01/30 04:25:20;;;;;;;4.70;2.90;;;;;;;20.89;26.69;103362.31;102844;1293;73339;-82
2024/01/30 04:27:46;;;;;;;4.20;2.70;;;;;;;20.89;26.76;103358.00;102471;1292;60016;-82
2024/01/30 04:30:12;;;;;;;4.50;2.80;;;;;;;20.90;26.69;103354.23;102524;1293;61821;-83
2024/01/30 04:32:37;;;;;;;4.20;2.90;;;;;;;20.90;26.72;103358.52;103307;1293;61421;-83
2024/01/30 04:35:03;;;;;;;4.40;2.50;;;;;;;20.90;26.78;103366.95;102937;1292;61389;-83
2024/01/30 04:37:29;;;;;;;4.00;2.40;;;;;;;20.90;26.59;103363.22;102893;1293;61249;-82
2024/01/30 04:39:54;;;;;;;4.20;2.70;;;;;;;20.90;26.64;103363.02;102757;1296;61733;-83
2024/01/30 04:42:20;;;;;;;4.60;2.70;;;;;;;20.90;26.63;103367.84;102487;1292;61403;-82
2024/01/30 04:44:46;;;;;;;5.30;2.90;;;;;;;20.90;26.64;103367.83;102629;1294;61361;-82
2024/01/30 04:47:12;;;;;;;4.10;2.50;;;;;;;20.90;26.74;103369.63;103146;1292;61535;-83
2024/01/30 04:49:40;;;;;;;4.60;2.90;;;;;;;20.90;26.64;103371.41;103519;1293;61399;-83
2024/01/30 04:52:06;;;;;;;5.80;3.00;;;;;;;20.90;26.57;103374.98;103746;1292;59512;-83
2024/01/30 04:54:33;;;;;;;5.50;2.90;;;;;;;20.90;26.62;103378.23;104034;1292;61424;-83
2024/01/30 04:56:58;;;;;;;5.80;2.90;;;;;;;20.89;26.54;103376.27;103908;1293;61409;-83
2024/01/30 04:59:24;;;;;;;5.60;2.90;;;;;;;20.89;26.48;103371.55;104041;1293;59401;-83
2024/01/30 05:01:50;;;;;;;6.80;3.30;;;;;;;20.89;26.66;103376.82;104063;1292;60458;-83
2024/01/30 05:04:15;;;;;;;6.60;3.30;;;;;;;20.89;26.69;103371.55;104056;1293;61438;-83
2024/01/30 05:06:41;;;;;;;5.60;3.60;;;;;;;20.89;26.53;103373.11;103940;1293;61434;-82
2024/01/30 05:09:07;;;;;;;6.10;3.50;;;;;;;20.88;26.68;103377.21;103955;1296;59633;-83
2024/01/30 05:11:40;;;;;;;6.70;4.20;;;;;;;20.87;26.67;103373.31;103796;1294;59293;-82
2024/01/30 05:14:06;;;;;;;6.50;4.50;;;;;;;20.84;26.65;103371.24;103973;1293;59995;-83
2024/01/30 05:16:31;;;;;;;7.70;5.10;;;;;;;20.81;26.55;103374.55;103857;1293;61476;-82
2024/01/30 05:18:57;;;;;;;9.50;5.50;;;;;;;20.77;26.51;103372.52;104018;1293;61409;-83
2024/01/30 05:21:23;;;;;;;9.20;5.90;;;;;;;20.73;26.48;103373.88;104024;1293;61428;-83
2024/01/30 05:23:49;;;;;;;9.70;6.30;;;;;;;20.69;26.30;103379.19;104080;1293;61420;-83
2024/01/30 05:26:14;;;;;;;11.00;7.00;;;;;;;20.65;26.07;103376.61;104028;1294;59711;-82
2024/01/30 05:28:40;;;;;;;9.50;6.80;;;;;;;20.60;25.94;103371.73;104119;1292;59410;-82
2024/01/30 05:31:06;;;;;;;11.80;7.90;;;;;;;20.56;25.86;103374.88;103962;1292;61403;-83
2024/01/30 05:33:31;;;;;;;13.30;7.60;;;;;;;20.51;25.80;103377.17;103795;1294;61467;-83
2024/01/30 05:35:57;;;;;;;13.80;7.80;;;;;;;20.48;25.65;103383.52;103643;1292;59411;-83
2024/01/30 05:38:22;;;;;;;11.70;7.40;;;;;;;20.43;25.48;103387.59;102962;1297;61192;-82
2024/01/30 05:40:51;;;;;;;11.60;7.30;;;;;;;20.38;25.50;103385.92;103075;1292;61859;-83
2024/01/30 05:43:17;;;;;;;9.30;6.90;;;;;;;20.35;25.42;103385.84;103128;1292;61288;-83
2024/01/30 05:45:42;;;;;;;10.40;6.70;;;;;;;20.32;25.30;103386.84;103454;1294;60740;-83
2024/01/30 05:48:08;;;;;;;15.40;8.40;;;;;;;20.29;25.44;103388.34;103510;1293;61384;-82
2024/01/30 05:50:34;;;;;;;14.20;8.80;;;;;;;20.25;25.28;103390.41;103498;1294;61393;-82
2024/01/30 05:52:59;;;;;;;15.70;8.70;;;;;;;20.21;25.10;103392.12;104134;1292;72561;-83
2024/01/30 05:55:25;;;;;;;12.70;7.10;;;;;;;20.17;25.07;103394.21;103982;1293;61431;-83
2024/01/30 05:57:52;;;;;;;13.20;6.20;;;;;;;20.12;25.16;103395.75;104141;1292;60039;-82
2024/01/30 06:00:18;;;;;;;14.10;6.70;;;;;;;20.10;25.43;103399.38;104356;1292;59502;-82
2024/01/30 06:02:44;;;;;;;12.70;6.00;;;;;;;20.12;25.87;103405.77;104647;1292;60696;-84
2024/01/30 06:05:10;;;;;;;10.30;6.30;;;;;;;20.12;25.99;103403.42;104356;1293;61424;-84
2024/01/30 06:07:35;;;;;;;10.50;6.60;;;;;;;20.11;25.99;103406.14;104342;1292;61380;-82
2024/01/30 06:10:02;;;;;;;12.70;6.80;;;;;;;20.11;26.09;103404.20;104339;1292;59271;-83
2024/01/30 06:12:28;;;;;;;10.90;6.80;;;;;;;20.12;25.97;103402.18;104123;1294;59058;-83
2024/01/30 06:14:56;;;;;;;12.10;7.20;;;;;;;20.13;25.78;103403.93;104358;1294;59214;-84
2024/01/30 06:17:23;;;;;;;12.90;7.00;;;;;;;20.14;25.84;103404.83;104132;1294;74520;-83
2024/01/30 06:19:48;;;;;;;17.70;8.10;;;;;;;20.13;25.86;103408.42;104378;1293;60922;-84
2024/01/30 06:22:14;;;;;;;14.90;8.50;;;;;;;20.13;25.97;103408.61;104008;1293;61345;-83
2024/01/30 06:24:39;;;;;;;17.00;8.00;;;;;;;20.12;25.88;103411.30;104341;1293;60079;-84
2024/01/30 06:27:05;;;;;;;17.00;7.80;;;;;;;20.11;25.78;103407.76;104273;1292;61377;-84
2024/01/30 06:29:31;;;;;;;15.00;8.30;;;;;;;20.11;26.08;103410.95;104217;1294;60775;-83
2024/01/30 06:31:58;;;;;;;15.40;8.50;;;;;;;20.11;26.27;103408.84;104587;1296;59220;-83
2024/01/30 06:34:23;;;;;;;20.30;8.00;;;;;;;20.11;26.36;103411.52;104661;1292;60814;-83
2024/01/30 06:36:49;;;;;;;18.30;8.00;;;;;;;20.11;26.43;103413.11;104659;1294;61250;-83
2024/01/30 06:39:16;;;;;;;11.10;7.40;;;;;;;20.10;26.41;103415.64;104792;1291;59862;-84
2024/01/30 06:41:42;;;;;;;15.50;7.70;;;;;;;20.12;26.67;103420.43;104792;1296;59437;-83
2024/01/30 06:44:08;;;;;;;14.10;7.40;;;;;;;20.13;26.52;103420.23;104605;1293;60098;-83
2024/01/30 06:46:34;;;;;;;11.50;6.90;;;;;;;20.15;26.66;103423.59;104528;1294;60566;-83
2024/01/30 06:48:59;;;;;;;11.60;7.30;;;;;;;20.16;26.68;103419.98;104606;1293;61381;-85
2024/01/30 06:51:25;;;;;;;14.90;7.20;;;;;;;20.19;26.59;103417.02;104447;1293;59533;-85
2024/01/30 06:53:52;;;;;;;13.40;6.90;;;;;;;20.20;26.62;103416.64;104890;1292;60636;-88
2024/01/30 06:56:20;;;;;;;13.80;7.30;;;;;;;20.21;26.56;103414.83;104761;1291;60242;-83
2024/01/30 06:58:49;;;;;;;15.10;7.20;;;;;;;20.22;26.53;103411.77;104802;1292;72367;-84
2024/01/30 07:01:15;;;;;;;13.70;6.90;;;;;;;20.23;26.54;103415.31;104703;1292;74819;-84
2024/01/30 07:03:41;;;;;;;13.10;6.50;;;;;;;20.23;26.60;103414.23;104469;1293;60266;-84
2024/01/30 07:06:08;;;;;;;12.70;6.60;;;;;;;20.24;26.65;103415.29;104444;1292;61428;-84
2024/01/30 07:08:34;;;;;;;11.70;6.40;;;;;;;20.24;26.67;103420.81;104143;1292;59374;-85
2024/01/30 07:10:59;;;;;;;11.50;6.60;;;;;;;20.25;26.74;103422.58;104470;1292;61469;-84
2024/01/30 07:13:25;;;;;;;11.50;6.30;;;;;;;20.26;26.66;103420.60;104568;1292;59574;-84
2024/01/30 07:15:50;;;;;;;12.40;6.40;;;;;;;20.28;26.59;103415.55;104251;1291;59377;-84
2024/01/30 07:18:16;;;;;;;13.50;6.60;;;;;;;20.30;26.51;103419.26;104544;1291;60172;-84
2024/01/30 07:20:51;;;;;;;19.10;7.50;;;;;;;20.31;26.32;103415.98;104378;1292;61461;-84
2024/01/30 07:23:17;;;;;;;12.20;6.50;;;;;;;20.33;26.44;103411.47;104348;1292;74537;-84
2024/01/30 07:26:02;;;;;;;11.50;6.20;;;;;;;20.37;26.36;103411.71;104463;1293;60119;-83
2024/01/30 07:28:27;;;;;;;14.20;6.50;;;;;;;20.39;26.32;103408.81;104460;1292;59549;-85
2024/01/30 07:30:53;;;;;;;10.20;6.40;;;;;;;20.41;26.28;103405.36;104619;1294;61361;-84
2024/01/30 07:33:19;;;;;;;15.30;7.30;;;;;;;20.42;26.46;103405.34;104742;1293;59765;-84
2024/01/30 07:35:45;;;;;;;12.90;6.70;;;;;;;20.42;26.39;103406.21;104618;1292;59506;-84
2024/01/30 07:38:11;;;;;;;13.40;6.30;;;;;;;20.43;26.52;103407.80;104450;1294;59673;-85
2024/01/30 07:40:37;;;;;;;12.20;6.20;;;;;;;20.45;26.57;103401.67;104296;1293;619920;-84
2024/01/30 07:43:17;;;;;;;16.00;6.20;;;;;;;20.47;26.65;103400.73;104739;1296;71329;-83
2024/01/30 07:45:43;;;;;;;11.50;6.30;;;;;;;20.48;26.67;103402.29;104670;1293;60330;-86
2024/01/30 07:48:09;;;;;;;11.90;6.60;;;;;;;20.50;26.61;103401.16;104566;1292;61546;-84
2024/01/30 07:50:34;;;;;;;11.20;6.50;;;;;;;20.52;26.74;103400.95;104004;1293;59409;-83
2024/01/30 07:53:00;;;;;;;11.60;6.00;;;;;;;20.54;26.83;103402.48;104529;1294;61421;-87
2024/01/30 07:55:28;;;;;;;15.90;6.70;;;;;;;20.57;27.05;103397.23;104854;1293;59422;-85
2024/01/30 07:57:54;;;;;;;10.50;5.50;;;;;;;20.58;27.29;103398.45;104779;1293;75481;-86
2024/01/30 08:00:21;;;;;;;18.10;6.10;;;;;;;20.59;27.52;103396.62;104754;1292;59559;-87
2024/01/30 08:02:46;;;;;;;19.30;6.10;;;;;;;20.61;27.52;103394.63;104578;1293;59923;-83
2024/01/30 08:05:14;;;;;;;13.90;6.00;;;;;;;20.62;27.73;103393.67;104736;1292;59110;-84
2024/01/30 08:07:40;;;;;;;15.00;5.90;;;;;;;20.64;27.68;103393.80;104672;1298;59136;-85
2024/01/30 08:10:06;;;;;;;13.30;5.60;;;;;;;20.65;27.60;103391.98;104557;1294;61424;-83
2024/01/30 08:12:31;;;;;;;12.00;5.70;;;;;;;20.66;27.68;103397.67;104383;1293;60010;-84
2024/01/30 08:14:57;;;;;;;11.80;6.30;;;;;;;20.66;27.72;103400.18;104419;1293;59564;-83
2024/01/30 08:17:23;;;;;;;20.70;6.10;;;;;;;20.66;27.71;103400.36;104350;1292;59734;-84
2024/01/30 08:19:48;;;;;;;11.30;5.60;;;;;;;20.67;27.71;103399.79;104459;1293;61277;-85
2024/01/30 08:22:14;;;;;;;10.70;6.10;;;;;;;20.69;27.58;103402.08;104412;1292;61131;-84
2024/01/30 08:24:41;;;;;;;16.70;6.00;;;;;;;20.70;27.72;103399.21;104855;1293;60444;-85
2024/01/30 08:27:09;;;;;;;14.60;6.20;;;;;;;20.71;27.66;103398.65;104783;1294;61395;-84
2024/01/30 08:29:35;;;;;;;17.70;6.10;;;;;;;20.72;27.63;103403.27;104823;1294;74436;-84
2024/01/30 08:32:01;;;;;;;13.00;5.60;;;;;;;20.72;27.69;103400.03;104720;1294;61624;-85
2024/01/30 08:34:27;;;;;;;18.70;7.00;;;;;;;20.73;27.74;103400.19;104782;1294;60066;-84
2024/01/30 08:36:54;;;;;;;12.10;5.70;;;;;;;20.74;27.54;103397.48;104586;1293;60226;-85
2024/01/30 08:39:19;;;;;;;11.50;6.20;;;;;;;20.75;27.63;103400.85;104687;1294;60138;-85
2024/01/30 08:41:45;;;;;;;14.80;6.10;;;;;;;20.76;27.69;103402.27;104678;1293;60943;-85
2024/01/30 08:44:11;;;;;;;14.30;5.90;;;;;;;20.76;27.53;103401.18;105065;1294;60041;-85
2024/01/30 08:46:37;;;;;;;13.90;6.00;;;;;;;20.77;27.59;103401.70;104860;1295;59138;-87
2024/01/30 08:49:05;;;;;;;13.00;5.90;;;;;;;20.76;27.73;103399.03;104867;1294;72569;-84
2024/01/30 08:51:31;;;;;;;12.50;6.00;;;;;;;20.73;27.65;103401.79;104920;1294;74521;-84
2024/01/30 08:53:57;;;;;;;10.50;5.50;;;;;;;20.71;27.39;103398.64;105036;1293;60193;-86
2024/01/30 08:56:22;;;;;;;10.80;5.60;;;;;;;20.67;27.30;103399.80;105031;1293;62256;-87
2024/01/30 08:58:48;;;;;;;9.90;5.60;;;;;;;20.63;27.54;103398.67;105091;1293;59451;-85
2024/01/30 09:01:14;;;;;;;12.00;5.90;;;;;;;20.60;27.44;103398.02;105124;1293;59913;-84
2024/01/30 09:03:40;;;;;;;11.00;5.50;;;;;;;20.58;27.21;103394.86;105175;1294;59914;-83
2024/01/30 09:06:12;;;;;;;20.80;5.40;;;;;;;20.57;27.45;103399.34;104986;1292;61080;-83
2024/01/30 09:08:38;;;;;;;24.90;6.00;;;;;;;20.59;28.69;103393.02;105117;1293;59796;-83
2024/01/30 09:11:11;;;;;;;16.10;6.00;;;;;;;20.61;29.47;103397.45;105105;1296;59096;-84
2024/01/30 09:13:37;;;;;;;10.90;5.60;;;;;;;20.60;29.44;103392.14;104934;1294;74279;-87
2024/01/30 09:16:04;;;;;;;13.10;5.80;;;;;;;20.59;29.31;103391.09;104924;1293;59542;-83
2024/01/30 09:18:29;;;;;;;15.60;5.70;;;;;;;20.58;29.12;103388.08;104735;1294;59178;-84
2024/01/30 09:20:55;;;;;;;15.70;5.50;;;;;;;20.57;29.07;103391.68;104756;1294;59366;-83
2024/01/30 09:23:21;;;;;;;11.40;5.40;;;;;;;20.55;28.79;103387.25;104785;1293;59202;-84
2024/01/30 09:25:47;;;;;;;13.70;5.40;;;;;;;20.54;28.68;103384.24;104692;1294;60514;-85
2024/01/30 09:28:13;;;;;;;13.10;5.40;;;;;;;20.52;28.64;103384.64;104772;1293;61345;-86
2024/01/30 09:30:38;;;;;;;12.50;5.30;;;;;;;20.52;28.57;103384.48;104994;1294;59267;-84
2024/01/30 09:33:05;;;;;;;11.40;5.30;;;;;;;20.50;28.55;103385.78;104915;1293;72679;-84
2024/01/30 09:35:30;;;;;;;10.20;4.80;;;;;;;20.50;28.39;103383.81;104953;1292;59271;-84
2024/01/30 09:37:57;;;;;;;17.90;5.10;;;;;;;20.49;28.28;103383.49;105072;1294;60165;-84
2024/01/30 09:40:24;;;;;;;13.30;5.40;;;;;;;20.48;28.32;103382.99;104788;1293;59470;-84
2024/01/30 09:42:53;;;;;;;14.30;4.80;;;;;;;20.47;28.21;103380.34;104856;1292;59224;-86
2024/01/30 09:45:19;;;;;;;;;;;;;;;20.45;28.07;103385.20;104544;1293;74198;-84
2024/01/30 09:47:45;;;;;;;11.00;4.60;;;;;;;20.40;28.16;103383.02;104960;1294;59748;-85
2024/01/30 09:50:12;;;;;;;9.10;4.80;;;;;;;20.39;28.14;103383.39;104495;1293;59342;-83
2024/01/30 09:52:38;;;;;;;10.00;4.80;;;;;;;20.37;28.11;103376.84;105204;1293;59374;-85
2024/01/30 09:55:04;;;;;;;18.90;4.90;;;;;;;20.32;27.86;103378.23;105499;1293;152984;-80
2024/01/30 09:57:30;;;;;;;21.00;5.40;;;;;;;20.24;28.05;103371.12;105372;1291;59414;-82
2024/01/30 09:59:56;;;;;;;15.50;5.30;;;;;;;20.10;27.80;103368.81;105551;1291;59290;-79
2024/01/30 10:02:22;;;;;;;12.00;5.00;;;;;;;19.97;27.75;103365.40;105501;1291;59440;-81
2024/01/30 10:04:49;;;;;;;9.00;4.10;;;;;;;19.90;27.73;103363.98;105345;1291;61182;-79
2024/01/30 10:07:15;;;;;;;9.40;4.30;;;;;;;19.88;27.81;103362.39;105920;1291;58903;-79
2024/01/30 10:09:40;;;;;;;11.00;4.60;;;;;;;19.86;27.61;103361.92;106019;1292;59636;-80
2024/01/30 10:12:07;;;;;;;12.60;4.50;;;;;;;19.74;27.48;103356.84;105932;1291;59964;-78
2024/01/30 10:14:33;;;;;;;10.90;4.40;;;;;;;19.67;27.35;103352.53;106046;1294;73587;-80
2024/01/30 10:16:59;;;;;;;12.50;5.10;;;;;;;19.68;27.27;103357.71;105898;1291;59384;-79
2024/01/30 10:19:25;;;;;;;11.10;4.00;;;;;;;19.68;27.32;103353.59;106150;1294;59169;-79
2024/01/30 10:21:51;;;;;;;10.10;4.80;;;;;;;19.69;27.37;103360.16;105970;1294;59033;-80
2024/01/30 10:24:17;;;;;;;14.60;4.50;;;;;;;19.68;27.11;103358.77;105783;1291;59830;-80
2024/01/30 10:26:45;;;;;;;13.90;4.00;;;;;;;19.61;27.03;103353.59;105565;1292;61304;-79
2024/01/30 10:29:11;;;;;;;13.80;4.40;;;;;;;19.56;27.02;103348.34;105403;1291;61262;-80
2024/01/30 10:31:37;;;;;;;11.80;4.60;;;;;;;19.56;27.00;103346.56;104759;1290;59312;-81
2024/01/30 10:34:03;;;;;;;9.30;4.10;;;;;;;19.52;27.01;103343.63;105057;1291;61293;-81
2024/01/30 10:36:31;;;;;;;9.60;4.80;;;;;;;19.53;27.45;103334.84;104749;1291;61232;-80
2024/01/30 10:38:59;;;;;;;11.10;5.00;;;;;;;19.54;27.57;103331.95;104818;1291;61477;-80
2024/01/30 10:41:28;;;;;;;8.90;4.60;;;;;;;19.54;27.64;103324.45;104814;1291;60007;-79
2024/01/30 10:46:39;;;;;;;9.50;4.40;;;;;;;19.53;27.60;103320.55;105670;1291;73389;-79
2024/01/30 10:49:06;;;;;;;12.50;4.20;;;;;;;19.52;27.74;103317.55;105625;1291;59968;-79
2024/01/30 10:51:32;;;;;;;10.50;4.70;;;;;;;19.52;27.80;103315.58;105702;1292;60321;-79
2024/01/30 10:53:58;;;;;;;15.90;4.40;;;;;;;19.52;27.69;103312.20;105220;1293;61347;-80
2024/01/30 10:56:24;;;;;;;10.00;4.70;;;;;;;19.51;27.66;103310.23;104506;1291;60282;-79
2024/01/30 10:58:53;;;;;;;11.10;4.60;;;;;;;19.51;27.53;103304.52;104446;1291;61288;-79
2024/01/30 11:01:22;;;;;;;;;;;;;;;19.50;27.67;103304.37;105716;1291;60191;-80
2024/01/30 11:03:52;;;;;;;9.60;4.60;;;;;;;19.44;27.52;103302.03;105775;1296;72795;-80
2024/01/30 11:06:20;;;;;;;12.40;4.70;;;;;;;19.31;27.28;103304.31;105848;1294;74442;-80
2024/01/30 11:08:46;;;;;;;25.60;6.10;;;;;;;19.08;27.32;103299.48;105957;1292;59448;-81
2024/01/30 11:11:12;;;;;;;10.50;5.30;;;;;;;18.88;27.00;103299.73;105862;1294;60242;-80
2024/01/30 11:13:38;;;;;;;12.50;4.40;;;;;;;18.87;27.34;103297.99;105929;1293;59392;-80